Time;durP1;ratioP1;P1;durP2;ratioP2;P2;SDS_P1;SDS_P2;PMS_P1;PMS_P2;Temp;Humidity;BMP_temperature;BMP_pressure;BME280_temperature;BME280_humidity;BME280_pressure;Samples;Min_cycle;Max_cycle;Signal;HPM_P1;HPM_P2
2021/05/28 00:00:02;;;;;;;4.33;2.20;;;11.50;99.90;;;;;;5045060;28;20653;-92
2021/05/28 00:02:28;;;;;;;3.90;2.80;;;11.50;99.90;;;;;;5041686;28;20638;-90
2021/05/28 00:04:56;;;;;;;3.50;3.30;;;11.50;99.90;;;;;;5032991;28;20673;-91
2021/05/28 00:07:22;;;;;;;3.00;2.80;;;11.60;99.90;;;;;;5026518;28;21237;-90
2021/05/28 00:09:49;;;;;;;4.23;3.83;;;11.50;99.90;;;;;;5027924;28;21107;-90
2021/05/28 00:12:20;;;;;;;3.60;3.40;;;11.50;99.90;;;;;;5024820;28;20645;-89
2021/05/28 00:14:48;;;;;;;4.47;4.00;;;11.50;99.90;;;;;;5024616;28;20754;-89
2021/05/28 00:17:16;;;;;;;4.70;3.27;;;11.50;99.90;;;;;;5023294;28;20680;-90
2021/05/28 00:19:42;;;;;;;4.57;4.17;;;11.40;99.90;;;;;;5024784;28;20680;-91
2021/05/28 00:22:09;;;;;;;5.30;4.87;;;11.40;99.90;;;;;;5026046;28;20627;-91
2021/05/28 00:24:35;;;;;;;7.37;6.73;;;11.40;99.90;;;;;;5029099;28;20630;-91
2021/05/28 00:27:02;;;;;;;6.13;4.60;;;11.40;99.90;;;;;;5027727;28;20614;-90
2021/05/28 00:29:29;;;;;;;5.60;5.20;;;11.40;99.90;;;;;;5028526;28;22091;-90
2021/05/28 00:31:55;;;;;;;5.30;4.80;;;11.40;99.90;;;;;;5026301;28;20634;-90
2021/05/28 00:34:23;;;;;;;7.00;6.47;;;11.40;99.90;;;;;;5026958;28;20617;-90
2021/05/28 00:36:51;;;;;;;7.03;6.43;;;11.50;99.90;;;;;;5024856;28;20619;-89
2021/05/28 00:39:17;;;;;;;7.43;6.77;;;11.40;99.90;;;;;;5026116;28;20641;-88
2021/05/28 00:41:45;;;;;;;7.60;7.10;;;11.40;99.90;;;;;;5023820;28;20623;-91
2021/05/28 00:44:12;;;;;;;8.87;8.20;;;11.40;99.90;;;;;;5028316;28;20622;-91
2021/05/28 00:46:40;;;;;;;8.83;8.10;;;11.40;99.90;;;;;;5026669;28;20619;-92
2021/05/28 00:49:09;;;;;;;8.37;7.77;;;11.30;99.90;;;;;;5027809;28;20638;-91
2021/05/28 00:51:36;;;;;;;9.10;8.30;;;11.40;99.90;;;;;;5028162;28;20638;-90
2021/05/28 00:54:04;;;;;;;8.33;7.70;;;11.40;99.90;;;;;;5026648;28;20611;-90
2021/05/28 00:56:31;;;;;;;8.93;8.23;;;11.40;99.90;;;;;;5030898;28;20710;-88
2021/05/28 00:59:00;;;;;;;8.07;7.40;;;11.40;99.90;;;;;;5029061;28;20619;-89
2021/05/28 01:01:28;;;;;;;7.67;7.00;;;11.40;99.90;;;;;;5026492;28;20651;-90
2021/05/28 01:03:55;;;;;;;7.10;6.50;;;11.40;99.90;;;;;;5015657;28;21224;-90
2021/05/28 01:06:23;;;;;;;5.70;5.20;;;11.40;99.90;;;;;;5022798;28;20634;-89
2021/05/28 01:08:49;;;;;;;5.50;5.00;;;11.40;99.90;;;;;;5024690;28;20719;-91
2021/05/28 01:11:15;;;;;;;5.00;4.50;;;11.40;99.90;;;;;;5023269;28;20663;-90
2021/05/28 01:13:42;;;;;;;5.30;4.80;;;11.40;99.90;;;;;;5024438;28;20639;-91
2021/05/28 01:16:08;;;;;;;4.10;3.80;;;11.40;99.90;;;;;;5019590;28;20667;-89
2021/05/28 01:18:35;;;;;;;4.50;4.20;;;11.40;99.90;;;;;;5020235;28;20643;-88
2021/05/28 01:21:02;;;;;;;4.50;4.10;;;11.50;99.90;;;;;;5023637;28;21209;-90
2021/05/28 01:23:29;;;;;;;5.40;4.90;;;11.50;99.90;;;;;;5023382;28;20632;-90
2021/05/28 01:25:56;;;;;;;4.50;4.10;;;11.50;99.90;;;;;;5021828;28;20635;-90
2021/05/28 01:28:23;;;;;;;6.43;4.70;;;11.50;99.90;;;;;;5021700;28;20635;-89
2021/05/28 01:30:49;;;;;;;4.00;3.60;;;11.50;99.90;;;;;;5021922;28;20725;-90
2021/05/28 01:33:17;;;;;;;3.90;3.60;;;11.50;99.90;;;;;;5020811;28;20644;-92
2021/05/28 01:35:43;;;;;;;3.90;3.60;;;11.50;99.90;;;;;;5020186;28;20770;-89
2021/05/28 01:38:09;;;;;;;4.30;3.87;;;11.50;99.90;;;;;;5023785;28;20646;-88
2021/05/28 01:40:37;;;;;;;4.10;3.73;;;11.60;99.90;;;;;;5025962;28;21009;-89
2021/05/28 01:43:04;;;;;;;3.73;3.43;;;11.60;99.90;;;;;;5019539;28;20616;-90
2021/05/28 01:45:33;;;;;;;4.13;3.73;;;11.60;99.90;;;;;;5022241;28;20702;-91
2021/05/28 01:48:01;;;;;;;3.40;3.10;;;11.60;99.90;;;;;;5021108;28;20645;-89
2021/05/28 01:50:28;;;;;;;3.53;3.23;;;11.60;99.90;;;;;;5020159;28;20635;-90
2021/05/28 01:52:54;;;;;;;4.93;3.37;;;11.50;99.90;;;;;;5023337;28;20634;-90
2021/05/28 01:55:20;;;;;;;4.20;3.70;;;11.40;99.90;;;;;;5023862;28;20662;-91
2021/05/28 01:57:47;;;;;;;3.80;3.23;;;11.50;99.90;;;;;;5024730;28;20620;-91
2021/05/28 02:00:16;;;;;;;4.10;2.73;;;11.50;99.90;;;;;;5023643;28;20668;-91
2021/05/28 02:02:42;;;;;;;5.83;3.67;;;11.40;99.90;;;;;;5026231;28;20635;-90
2021/05/28 02:05:10;;;;;;;4.60;3.10;;;11.40;99.90;;;;;;5023939;28;20626;-90
2021/05/28 02:07:38;;;;;;;4.00;3.60;;;11.50;99.90;;;;;;5023676;28;20621;-91
2021/05/28 02:10:05;;;;;;;3.13;2.93;;;11.60;99.90;;;;;;5023250;28;20680;-90
2021/05/28 02:12:31;;;;;;;3.63;3.33;;;11.60;99.90;;;;;;5023644;28;20658;-90
2021/05/28 02:15:00;;;;;;;3.63;3.30;;;11.50;99.90;;;;;;5022482;28;20666;-90
2021/05/28 02:17:27;;;;;;;3.63;3.33;;;11.50;99.90;;;;;;5027383;28;20631;-90
2021/05/28 02:19:54;;;;;;;4.30;3.90;;;11.60;99.90;;;;;;5026758;28;20669;-90
2021/05/28 02:22:20;;;;;;;3.47;3.17;;;11.60;99.90;;;;;;5026741;28;20635;-90
2021/05/28 02:24:47;;;;;;;3.53;3.20;;;11.60;99.90;;;;;;5027855;28;20627;-89
2021/05/28 02:27:13;;;;;;;3.60;3.27;;;11.50;99.90;;;;;;5030215;28;20986;-91
2021/05/28 02:29:40;;;;;;;3.90;3.10;;;11.60;99.90;;;;;;5046109;28;20666;-91
2021/05/28 02:32:20;;;;;;;3.40;3.10;;;11.50;99.90;;;;;;5048610;28;20634;-91
2021/05/28 02:34:47;;;;;;;3.83;3.17;;;11.60;99.90;;;;;;5043836;28;20691;-91
2021/05/28 02:37:13;;;;;;;3.03;2.80;;;11.50;99.90;;;;;;5045742;28;20584;-92
2021/05/28 02:39:42;;;;;;;3.33;2.60;;;11.50;99.90;;;;;;5037492;28;21131;-91
2021/05/28 02:42:10;;;;;;;3.53;2.80;;;11.40;99.90;;;;;;5026963;28;21192;-90
2021/05/28 02:44:37;;;;;;;2.73;2.53;;;11.30;99.90;;;;;;5024062;28;20682;-89
2021/05/28 02:47:04;;;;;;;3.23;3.00;;;11.30;99.90;;;;;;5025654;28;20673;-89
2021/05/28 02:49:31;;;;;;;4.23;2.77;;;11.30;99.90;;;;;;5026520;28;20678;-90
2021/05/28 02:51:58;;;;;;;2.57;2.37;;;11.20;99.90;;;;;;5026517;28;20634;-90
2021/05/28 02:54:25;;;;;;;3.57;3.27;;;11.30;99.90;;;;;;5022335;28;20631;-90
2021/05/28 02:56:52;;;;;;;2.83;2.60;;;11.30;99.90;;;;;;5023270;28;20668;-90
2021/05/28 02:59:18;;;;;;;3.13;2.83;;;11.30;99.90;;;;;;5025743;28;20684;-90
2021/05/28 03:01:45;;;;;;;2.80;2.60;;;11.20;99.90;;;;;;5029996;28;20749;-90
2021/05/28 03:04:14;;;;;;;2.33;2.17;;;11.20;99.90;;;;;;5029877;28;21174;-93
2021/05/28 03:06:41;;;;;;;2.53;2.00;;;11.20;99.90;;;;;;5030016;28;20654;-90
2021/05/28 03:09:08;;;;;;;4.00;2.60;;;11.20;99.90;;;;;;5028630;28;20645;-89
2021/05/28 03:11:35;;;;;;;3.63;2.40;;;11.20;99.90;;;;;;5026251;28;20649;-89
2021/05/28 03:14:02;;;;;;;7.70;2.80;;;11.20;99.90;;;;;;5028643;28;21447;-89
2021/05/28 03:16:29;;;;;;;7.63;2.30;;;11.10;99.90;;;;;;5031088;28;20667;-91
2021/05/28 03:18:56;;;;;;;3.87;2.73;;;11.10;99.90;;;;;;5032261;28;20670;-90
2021/05/28 03:21:26;;;;;;;3.63;3.30;;;11.10;99.90;;;;;;5030594;28;20681;-91
2021/05/28 03:24:01;;;;;;;2.60;2.40;;;11.00;99.90;;;;;;5031386;28;20634;-91
2021/05/28 03:26:28;;;;;;;2.70;2.50;;;11.00;99.90;;;;;;5024517;28;20709;-91
2021/05/28 03:28:56;;;;;;;2.63;2.43;;;11.00;99.90;;;;;;5035578;28;20635;-91
2021/05/28 03:31:24;;;;;;;4.27;2.87;;;11.00;99.90;;;;;;5025898;28;20666;-92
2021/05/28 03:33:51;;;;;;;3.43;2.90;;;10.90;99.90;;;;;;5026663;28;20673;-88
2021/05/28 03:36:18;;;;;;;5.50;2.90;;;10.90;99.90;;;;;;5026888;28;20706;-89
2021/05/28 03:38:47;;;;;;;3.20;2.70;;;10.90;99.90;;;;;;5027811;28;20645;-88
2021/05/28 03:41:15;;;;;;;3.80;3.10;;;10.90;99.90;;;;;;5023548;28;20790;-89
2021/05/28 03:43:42;;;;;;;3.40;3.10;;;10.90;99.90;;;;;;5025227;28;20673;-89
2021/05/28 03:46:09;;;;;;;5.47;3.50;;;10.90;99.90;;;;;;5020644;28;20623;-89
2021/05/28 03:48:37;;;;;;;3.00;2.73;;;10.90;99.90;;;;;;5018877;28;20670;-89
2021/05/28 03:51:04;;;;;;;4.80;3.20;;;10.90;99.90;;;;;;5025858;28;20708;-89
2021/05/28 03:53:30;;;;;;;5.03;3.60;;;11.00;99.90;;;;;;5027334;28;20606;-89
2021/05/28 03:55:57;;;;;;;4.93;4.00;;;11.00;99.90;;;;;;5026864;28;20654;-88
2021/05/28 03:58:26;;;;;;;3.57;3.20;;;11.00;99.90;;;;;;5027692;28;20618;-90
2021/05/28 04:00:53;;;;;;;4.27;3.97;;;11.10;99.90;;;;;;5021954;28;20649;-90
2021/05/28 04:03:19;;;;;;;4.67;4.27;;;11.10;99.90;;;;;;5024497;28;20615;-91
2021/05/28 04:05:47;;;;;;;5.13;3.90;;;11.20;99.90;;;;;;5025674;28;20629;-89
2021/05/28 04:08:13;;;;;;;4.67;4.27;;;11.30;99.90;;;;;;5029286;28;20648;-89
2021/05/28 04:10:40;;;;;;;6.00;4.20;;;11.30;99.90;;;;;;5027542;28;21316;-89
2021/05/28 04:13:06;;;;;;;5.00;3.90;;;11.20;99.90;;;;;;5022746;28;21173;-89
2021/05/28 04:15:34;;;;;;;4.43;4.03;;;11.20;99.90;;;;;;5019845;28;20651;-89
2021/05/28 04:18:00;;;;;;;4.03;3.70;;;11.20;99.90;;;;;;5023657;28;21265;-90
2021/05/28 04:20:28;;;;;;;4.53;3.50;;;11.30;99.90;;;;;;5026272;28;21243;-91
2021/05/28 04:22:54;;;;;;;7.67;3.10;;;11.30;99.90;;;;;;5027531;28;20625;-89
2021/05/28 04:25:21;;;;;;;4.30;3.77;;;11.30;99.90;;;;;;5020725;28;20741;-89
2021/05/28 04:27:48;;;;;;;4.37;2.70;;;11.20;99.90;;;;;;5023723;28;20646;-89
2021/05/28 04:30:23;;;;;;;5.43;3.40;;;11.10;99.90;;;;;;5021636;28;20642;-89
2021/05/28 04:32:50;;;;;;;5.07;3.60;;;11.00;99.90;;;;;;5024670;28;20664;-89
2021/05/28 04:35:17;;;;;;;3.50;3.17;;;10.90;99.90;;;;;;5027478;28;20728;-89
2021/05/28 04:37:44;;;;;;;4.13;3.70;;;10.90;99.90;;;;;;5025649;28;20623;-89
2021/05/28 04:40:12;;;;;;;4.83;3.17;;;10.90;99.90;;;;;;5029529;28;20669;-90
2021/05/28 04:42:41;;;;;;;4.40;3.20;;;11.00;99.90;;;;;;5026685;28;20643;-91
2021/05/28 04:45:09;;;;;;;5.97;3.30;;;11.20;99.90;;;;;;5030776;28;20633;-89
2021/05/28 04:47:37;;;;;;;4.40;3.33;;;11.20;99.90;;;;;;5025606;28;20676;-89
2021/05/28 04:50:07;;;;;;;3.20;2.80;;;11.30;99.90;;;;;;5027655;28;20650;-89
2021/05/28 04:52:34;;;;;;;3.83;3.30;;;11.30;99.90;;;;;;5029545;28;20702;-89
2021/05/28 04:55:01;;;;;;;3.73;3.43;;;11.40;99.90;;;;;;5030643;28;20627;-90
2021/05/28 04:57:27;;;;;;;4.30;3.20;;;11.60;99.90;;;;;;5036663;28;20657;-90
2021/05/28 04:59:56;;;;;;;4.30;3.83;;;11.50;99.90;;;;;;5030768;28;20705;-90
2021/05/28 05:02:23;;;;;;;4.47;4.07;;;11.50;99.90;;;;;;5029896;28;21224;-90
2021/05/28 05:04:54;;;;;;;7.10;4.00;;;11.60;99.90;;;;;;5033969;28;20619;-90
2021/05/28 05:07:21;;;;;;;8.23;4.23;;;11.70;99.90;;;;;;5034596;28;20588;-90
2021/05/28 05:09:54;;;;;;;5.20;4.80;;;11.80;99.90;;;;;;5029917;28;20658;-89
2021/05/28 05:12:30;;;;;;;5.47;5.07;;;11.90;99.90;;;;;;5031409;28;20618;-88
2021/05/28 05:14:57;;;;;;;6.10;5.60;;;12.00;99.90;;;;;;5032907;28;20641;-91
2021/05/28 05:17:26;;;;;;;6.43;5.53;;;12.00;99.90;;;;;;5033270;28;20635;-89
2021/05/28 05:19:52;;;;;;;8.00;6.00;;;11.90;99.90;;;;;;5026818;28;20735;-89
2021/05/28 05:22:22;;;;;;;7.00;6.40;;;11.90;99.90;;;;;;5028916;28;20610;-89
2021/05/28 05:24:50;;;;;;;7.40;6.70;;;11.80;99.90;;;;;;5043005;28;20662;-89
2021/05/28 05:27:22;;;;;;;6.67;6.00;;;11.80;99.90;;;;;;5046490;28;20615;-90
2021/05/28 05:29:51;;;;;;;5.90;5.30;;;12.00;99.90;;;;;;5047431;28;20693;-89
2021/05/28 05:32:32;;;;;;;6.97;6.30;;;12.10;99.90;;;;;;5043777;28;20622;-90
2021/05/28 05:35:08;;;;;;;9.57;6.47;;;12.20;99.90;;;;;;5049091;28;20650;-91
2021/05/28 05:37:45;;;;;;;7.30;6.60;;;12.20;99.90;;;;;;5051670;28;20629;-89
2021/05/28 05:40:18;;;;;;;6.97;6.47;;;12.20;99.90;;;;;;5038301;28;20643;-90
2021/05/28 05:42:56;;;;;;;7.20;6.60;;;12.30;99.90;;;;;;5047086;28;20628;-90
2021/05/28 05:45:28;;;;;;;7.13;6.30;;;12.20;99.90;;;;;;5049544;28;20638;-90
2021/05/28 05:47:58;;;;;;;7.10;6.40;;;12.20;99.90;;;;;;5048413;28;20615;-91
2021/05/28 05:50:25;;;;;;;7.93;7.07;;;12.20;99.90;;;;;;5047176;28;20670;-90
2021/05/28 05:53:01;;;;;;;7.87;6.23;;;12.40;99.90;;;;;;5052462;28;20716;-90
2021/05/28 05:55:37;;;;;;;6.63;6.00;;;12.40;99.90;;;;;;5048919;28;20728;-89
2021/05/28 05:58:09;;;;;;;6.70;5.17;;;12.50;99.90;;;;;;5041948;28;20637;-90
2021/05/28 06:00:37;;;;;;;7.87;7.10;;;12.60;99.90;;;;;;5049547;28;20683;-89
2021/05/28 06:03:04;;;;;;;6.70;6.07;;;12.70;99.90;;;;;;5047623;28;20654;-89
2021/05/28 06:05:30;;;;;;;7.07;6.37;;;12.70;99.90;;;;;;5049961;28;20643;-89
2021/05/28 06:08:06;;;;;;;7.83;6.00;;;12.50;99.90;;;;;;5048993;28;20607;-89
2021/05/28 06:10:34;;;;;;;9.20;6.87;;;12.70;99.90;;;;;;5050565;28;20785;-89
2021/05/28 06:13:06;;;;;;;6.90;6.23;;;12.70;99.90;;;;;;5048566;28;20615;-90
2021/05/28 06:15:34;;;;;;;7.07;6.47;;;12.90;99.90;;;;;;5049229;28;20658;-88
2021/05/28 06:18:02;;;;;;;6.83;6.10;;;12.80;99.90;;;;;;5047226;28;20673;-88
2021/05/28 06:20:30;;;;;;;8.00;6.60;;;12.80;99.90;;;;;;5043118;28;20662;-88
2021/05/28 06:22:57;;;;;;;7.73;7.00;;;12.80;99.90;;;;;;5048322;28;20716;-86
2021/05/28 06:25:25;;;;;;;7.97;7.27;;;13.00;99.90;;;;;;5037762;28;20677;-85
2021/05/28 06:27:51;;;;;;;8.40;6.73;;;12.80;99.90;;;;;;5033637;28;21466;-83
2021/05/28 06:30:19;;;;;;;8.47;7.60;;;12.70;99.90;;;;;;5024706;28;20766;-84
2021/05/28 06:32:46;;;;;;;9.90;8.20;;;12.80;99.90;;;;;;5027008;28;20623;-84
2021/05/28 06:35:13;;;;;;;8.53;7.83;;;13.10;99.90;;;;;;5023221;28;20630;-84
2021/05/28 06:37:39;;;;;;;5.73;5.23;;;12.80;99.90;;;;;;5022860;28;20631;-84
2021/05/28 06:40:07;;;;;;;7.60;6.90;;;13.00;99.90;;;;;;5022949;28;20674;-85
2021/05/28 06:42:34;;;;;;;8.30;7.63;;;13.20;99.90;;;;;;5018780;28;20631;-84
2021/05/28 06:45:01;;;;;;;8.00;7.30;;;13.10;99.90;;;;;;5023883;28;20630;-84
2021/05/28 06:47:27;;;;;;;8.50;7.70;;;13.20;99.90;;;;;;5020027;28;20725;-84
2021/05/28 06:49:56;;;;;;;8.00;7.30;;;13.20;99.90;;;;;;5025662;28;20659;-83
2021/05/28 06:52:22;;;;;;;11.20;6.90;;;13.20;99.90;;;;;;5033422;28;20623;-83
2021/05/28 06:54:49;;;;;;;8.83;7.90;;;13.10;99.90;;;;;;5034421;28;20611;-83
2021/05/28 06:57:15;;;;;;;9.43;7.00;;;13.10;99.90;;;;;;5027951;28;20677;-83
2021/05/28 06:59:42;;;;;;;7.40;6.80;;;13.10;99.90;;;;;;5028872;28;20678;-83
2021/05/28 07:02:10;;;;;;;8.30;7.50;;;13.20;99.90;;;;;;5027156;28;21189;-83
2021/05/28 07:04:36;;;;;;;9.73;6.67;;;13.20;99.90;;;;;;5023899;28;20650;-83
2021/05/28 07:07:02;;;;;;;7.23;6.73;;;13.30;99.90;;;;;;5022885;28;20629;-84
2021/05/28 07:09:29;;;;;;;7.60;7.00;;;13.50;99.90;;;;;;5022680;28;20649;-84
2021/05/28 07:11:55;;;;;;;7.57;6.87;;;13.50;99.90;;;;;;5019719;28;20631;-84
2021/05/28 07:14:21;;;;;;;7.90;7.10;;;13.40;99.90;;;;;;5020907;28;21275;-83
2021/05/28 07:16:49;;;;;;;7.73;7.00;;;13.50;99.90;;;;;;5017402;28;20790;-83
2021/05/28 07:19:15;;;;;;;9.73;6.53;;;13.60;99.90;;;;;;5018777;28;20697;-83
2021/05/28 07:21:41;;;;;;;6.40;5.80;;;13.80;99.90;;;;;;5014405;28;21192;-83
2021/05/28 07:24:09;;;;;;;9.30;8.10;;;13.70;99.90;;;;;;5015376;28;20662;-84
2021/05/28 07:26:35;;;;;;;10.13;8.07;;;13.60;99.90;;;;;;5016542;28;20718;-84
2021/05/28 07:29:01;;;;;;;7.47;6.87;;;13.50;99.90;;;;;;5020863;28;20654;-84
2021/05/28 07:31:28;;;;;;;7.43;6.67;;;13.60;99.90;;;;;;5020268;28;20641;-83
2021/05/28 07:33:55;;;;;;;7.40;6.70;;;13.60;99.90;;;;;;5014151;28;20675;-84
2021/05/28 07:36:23;;;;;;;8.10;7.10;;;13.60;99.90;;;;;;5016454;28;20655;-85
2021/05/28 07:38:49;;;;;;;6.00;5.40;;;13.70;99.90;;;;;;5020374;28;21073;-84
2021/05/28 07:41:16;;;;;;;7.13;5.83;;;14.20;99.90;;;;;;5014364;28;20688;-86
2021/05/28 07:43:43;;;;;;;6.50;5.80;;;14.10;99.90;;;;;;5018228;28;20679;-85
2021/05/28 07:46:10;;;;;;;5.87;5.30;;;14.30;99.90;;;;;;5021245;28;21214;-86
2021/05/28 07:48:38;;;;;;;9.93;5.20;;;14.20;99.90;;;;;;5018310;28;20679;-86
2021/05/28 07:51:05;;;;;;;6.73;6.13;;;14.20;99.90;;;;;;5022255;28;20669;-84
2021/05/28 07:53:33;;;;;;;7.47;6.10;;;14.40;99.90;;;;;;5022679;28;20671;-88
2021/05/28 07:56:04;;;;;;;7.07;6.00;;;14.30;99.90;;;;;;5021511;28;20662;-86
2021/05/28 07:58:31;;;;;;;5.80;5.27;;;14.40;99.90;;;;;;5025126;28;20631;-85
2021/05/28 08:00:57;;;;;;;6.07;5.47;;;14.10;99.90;;;;;;5021678;28;20642;-84
2021/05/28 08:03:24;;;;;;;7.57;6.67;;;14.30;99.90;;;;;;5018552;28;20701;-85
2021/05/28 08:05:51;;;;;;;6.57;4.20;;;14.60;99.90;;;;;;5022488;28;20665;-84
2021/05/28 08:08:19;;;;;;;5.63;5.23;;;14.60;99.90;;;;;;5022660;28;20639;-84
2021/05/28 08:10:48;;;;;;;5.80;4.73;;;14.90;99.90;;;;;;5023281;28;21006;-85
2021/05/28 08:13:15;;;;;;;6.20;3.77;;;15.00;99.90;;;;;;5023436;28;20659;-84
2021/05/28 08:15:42;;;;;;;4.50;4.10;;;15.00;99.90;;;;;;5022495;28;20720;-85
2021/05/28 08:18:08;;;;;;;4.53;4.10;;;15.00;99.90;;;;;;5017744;28;20685;-84
2021/05/28 08:20:35;;;;;;;5.17;4.43;;;15.40;99.90;;;;;;5022764;28;20642;-85
2021/05/28 08:23:01;;;;;;;4.00;3.37;;;15.90;99.90;;;;;;5022173;28;20681;-84
2021/05/28 08:25:29;;;;;;;3.93;3.60;;;16.00;99.90;;;;;;5021834;28;21511;-84
2021/05/28 08:27:56;;;;;;;4.87;4.00;;;15.40;99.90;;;;;;5022168;28;20653;-84
2021/05/28 08:30:23;;;;;;;5.10;4.07;;;15.30;99.90;;;;;;5022362;28;21227;-85
2021/05/28 08:32:50;;;;;;;4.20;3.80;;;15.70;99.90;;;;;;5023239;28;20670;-85
2021/05/28 08:35:17;;;;;;;4.70;4.30;;;15.50;99.90;;;;;;5021845;28;20640;-86
2021/05/28 08:37:47;;;;;;;5.07;3.77;;;15.50;99.90;;;;;;5017886;28;20634;-85
2021/05/28 08:40:16;;;;;;;5.87;4.60;;;15.80;99.90;;;;;;5020302;28;21198;-87
2021/05/28 08:42:44;;;;;;;4.27;3.97;;;15.60;99.90;;;;;;5030627;28;20653;-86
2021/05/28 08:45:13;;;;;;;5.10;4.07;;;16.00;99.90;;;;;;5022439;28;20705;-88
2021/05/28 08:47:40;;;;;;;7.03;4.53;;;16.10;99.90;;;;;;5025852;28;20700;-86
2021/05/28 08:50:08;;;;;;;4.57;4.17;;;16.30;99.90;;;;;;5021202;28;20712;-86
2021/05/28 08:52:35;;;;;;;4.67;4.20;;;16.20;99.90;;;;;;5019715;28;20684;-87
2021/05/28 08:55:01;;;;;;;5.97;4.10;;;16.60;99.90;;;;;;5020974;28;20669;-87
2021/05/28 08:57:29;;;;;;;8.00;4.60;;;16.90;99.90;;;;;;5024222;28;20646;-86
2021/05/28 08:59:56;;;;;;;5.17;4.70;;;16.80;99.90;;;;;;5026852;28;20643;-88
2021/05/28 09:02:33;;;;;;;4.83;4.10;;;17.00;99.90;;;;;;5024634;28;20674;-88
2021/05/28 09:05:12;;;;;;;8.30;4.40;;;16.60;99.90;;;;;;5026607;28;21062;-89
2021/05/28 09:07:39;;;;;;;4.00;3.70;;;16.70;99.90;;;;;;5021276;28;20641;-87
2021/05/28 09:10:27;;;;;;;3.73;3.43;;;16.50;99.90;;;;;;5025741;28;20635;-89
2021/05/28 09:12:54;;;;;;;4.50;4.03;;;16.90;99.90;;;;;;5017109;28;20652;-89
2021/05/28 09:15:22;;;;;;;6.03;2.90;;;17.00;99.50;;;;;;5021289;28;20631;-89
2021/05/28 09:17:50;;;;;;;5.53;3.27;;;16.40;98.10;;;;;;5019430;28;20670;-87
2021/05/28 09:20:19;;;;;;;6.40;3.90;;;16.60;99.90;;;;;;5018205;28;20623;-88
2021/05/28 09:22:46;;;;;;;4.80;4.40;;;16.90;99.90;;;;;;5015096;28;20679;-88
2021/05/28 09:25:13;;;;;;;5.03;4.53;;;17.10;99.90;;;;;;5025505;28;20688;-89
2021/05/28 09:27:47;;;;;;;3.57;3.27;;;16.80;99.60;;;;;;5027484;28;20994;-88
2021/05/28 09:30:17;;;;;;;3.57;3.27;;;16.80;99.90;;;;;;5043434;28;20619;-88
2021/05/28 09:32:50;;;;;;;4.97;3.07;;;17.10;99.90;;;;;;5039287;28;20694;-87
2021/05/28 09:35:18;;;;;;;4.50;3.77;;;17.10;99.80;;;;;;5040699;28;20631;-89
2021/05/28 09:37:46;;;;;;;5.57;3.83;;;16.90;97.40;;;;;;5039127;28;20977;-87
2021/05/28 09:40:17;;;;;;;4.40;3.40;;;17.10;97.40;;;;;;5026071;28;21198;-90
2021/05/28 09:42:51;;;;;;;4.93;4.53;;;16.60;97.80;;;;;;5024456;28;20669;-86
2021/05/28 09:45:23;;;;;;;8.70;4.27;;;16.20;98.40;;;;;;5021111;28;20639;-88
2021/05/28 09:47:53;;;;;;;3.43;3.03;;;16.60;99.70;;;;;;5020398;28;20701;-89
2021/05/28 09:50:20;;;;;;;3.57;3.37;;;16.80;99.90;;;;;;5022029;28;20673;-88
2021/05/28 09:52:49;;;;;;;5.67;4.60;;;17.20;98.40;;;;;;5025553;28;20709;-92
2021/05/28 09:55:16;;;;;;;5.83;4.83;;;17.10;99.90;;;;;;5021594;28;20627;-92
2021/05/28 09:57:46;;;;;;;4.97;4.13;;;17.30;99.10;;;;;;5023095;28;20634;-88
2021/05/28 10:00:24;;;;;;;4.60;4.10;;;17.40;99.10;;;;;;5016784;28;20631;-88
2021/05/28 10:03:11;;;;;;;4.00;3.63;;;17.60;98.80;;;;;;5026074;28;21056;-89
2021/05/28 10:05:40;;;;;;;4.50;3.30;;;17.40;99.10;;;;;;5030300;28;20680;-89
2021/05/28 10:08:07;;;;;;;4.33;3.93;;;17.80;96.90;;;;;;5021406;28;20776;-89
2021/05/28 10:10:35;;;;;;;4.70;4.30;;;17.70;97.30;;;;;;5022029;28;21174;-90
2021/05/28 10:13:09;;;;;;;5.67;4.80;;;17.60;97.90;;;;;;5021657;28;20713;-89
2021/05/28 10:15:37;;;;;;;5.30;4.67;;;17.50;97.60;;;;;;5021498;28;20627;-89
2021/05/28 10:18:04;;;;;;;8.50;4.80;;;17.30;98.90;;;;;;5015185;28;20611;-90
2021/05/28 10:20:31;;;;;;;3.90;3.50;;;17.10;98.30;;;;;;5016596;28;20618;-90
2021/05/28 10:22:59;;;;;;;4.27;3.20;;;17.30;98.30;;;;;;5020992;28;20669;-90
2021/05/28 10:25:25;;;;;;;4.80;3.00;;;17.60;97.80;;;;;;5024130;28;21435;-89
2021/05/28 10:27:53;;;;;;;2.73;2.50;;;17.70;96.60;;;;;;5021750;28;20630;-89
2021/05/28 10:30:23;;;;;;;5.33;3.20;;;17.90;95.70;;;;;;5018866;28;20634;-89
2021/05/28 10:33:15;;;;;;;4.07;3.77;;;18.00;94.30;;;;;;5020156;28;20643;-89
2021/05/28 10:35:46;;;;;;;3.23;3.00;;;17.80;95.80;;;;;;5019086;28;20666;-90
2021/05/28 10:38:41;;;;;;;3.90;2.50;;;18.20;95.10;;;;;;5025685;28;20615;-89
2021/05/28 10:41:38;;;;;;;3.67;2.67;;;18.30;94.50;;;;;;5032040;28;21181;-88
2021/05/28 10:44:14;;;;;;;5.27;2.90;;;18.60;93.80;;;;;;5022878;28;20646;-87
2021/05/28 10:47:19;;;;;;;2.60;2.13;;;18.30;92.60;;;;;;5017518;28;20638;-88
2021/05/28 10:49:47;;;;;;;3.37;3.07;;;18.10;91.00;;;;;;5022294;28;20629;-86
2021/05/28 10:52:29;;;;;;;3.07;2.87;;;18.10;92.60;;;;;;5019678;28;20629;-87
2021/05/28 10:54:59;;;;;;;3.20;2.90;;;17.60;93.00;;;;;;5020934;28;21529;-88
2021/05/28 10:57:43;;;;;;;5.03;3.73;;;17.80;93.70;;;;;;5019441;28;20671;-87
2021/05/28 11:00:19;;;;;;;3.83;3.10;;;18.40;93.00;;;;;;5020066;28;20627;-86
2021/05/28 11:03:12;;;;;;;5.03;2.97;;;18.40;92.80;;;;;;5018343;28;20667;-87
2021/05/28 11:05:53;;;;;;;3.53;2.80;;;19.60;93.00;;;;;;5018579;28;20646;-88
2021/05/28 11:08:49;;;;;;;4.40;3.30;;;19.60;91.00;;;;;;5020900;28;21858;-87
2021/05/28 11:11:58;;;;;;;5.17;3.30;;;19.50;90.60;;;;;;5017988;28;20701;-87
2021/05/28 11:14:27;;;;;;;3.30;3.10;;;19.50;90.80;;;;;;5017573;28;20685;-88
2021/05/28 11:17:16;;;;;;;4.23;2.90;;;20.80;91.00;;;;;;5019303;28;21221;-87
2021/05/28 11:19:49;;;;;;;4.17;2.17;;;21.40;84.40;;;;;;5018026;28;20643;-89
2021/05/28 11:22:32;;;;;;;2.83;2.63;;;20.40;81.70;;;;;;5025412;28;20738;-88
2021/05/28 11:25:01;;;;;;;3.63;2.10;;;19.70;82.90;;;;;;5025983;28;21115;-88
2021/05/28 11:27:43;;;;;;;2.23;1.80;;;18.70;84.20;;;;;;5029860;28;20631;-87
2021/05/28 11:30:21;;;;;;;1.90;1.70;;;18.60;88.50;;;;;;5027848;28;20634;-88
2021/05/28 11:32:49;;;;;;;3.43;2.50;;;18.80;88.90;;;;;;5021630;28;20666;-88
2021/05/28 11:35:18;;;;;;;5.60;2.97;;;18.70;89.70;;;;;;5020786;28;20635;-87
2021/05/28 11:37:51;;;;;;;2.70;2.50;;;19.30;90.50;;;;;;5027411;28;21369;-87
2021/05/28 11:40:20;;;;;;;3.10;2.90;;;20.30;89.40;;;;;;5025816;28;20647;-88
2021/05/28 11:42:46;;;;;;;3.37;3.07;;;21.00;86.60;;;;;;5024194;28;20650;-86
2021/05/28 11:45:15;;;;;;;3.17;2.97;;;21.00;85.40;;;;;;5024427;28;20644;-87
2021/05/28 11:47:42;;;;;;;3.47;3.17;;;20.10;85.70;;;;;;5017692;28;20675;-87
2021/05/28 11:50:11;;;;;;;3.20;3.00;;;19.90;86.20;;;;;;5024483;28;20657;-87
2021/05/28 11:52:39;;;;;;;2.63;2.43;;;19.40;86.30;;;;;;5026657;28;20674;-88
2021/05/28 11:55:09;;;;;;;2.90;2.70;;;19.30;86.00;;;;;;5027050;28;20999;-88
2021/05/28 11:57:36;;;;;;;3.10;2.90;;;19.50;85.80;;;;;;5025536;28;20667;-88
2021/05/28 12:00:07;;;;;;;3.10;1.87;;;19.70;84.40;;;;;;5025829;28;20647;-89
2021/05/28 12:02:43;;;;;;;1.70;1.60;;;20.70;82.90;;;;;;5027990;28;21579;-87
2021/05/28 12:05:18;;;;;;;1.90;1.63;;;21.70;74.70;;;;;;5029598;28;20618;-88
2021/05/28 12:07:45;;;;;;;2.80;2.60;;;22.70;73.90;;;;;;5029517;28;20922;-88
2021/05/28 12:10:13;;;;;;;1.70;1.60;;;22.80;72.50;;;;;;5026557;28;20646;-88
2021/05/28 12:12:50;;;;;;;1.83;1.73;;;22.80;69.10;;;;;;5029440;28;20689;-88
2021/05/28 12:15:17;;;;;;;1.43;1.33;;;22.30;75.50;;;;;;5027394;28;21236;-88
2021/05/28 12:17:44;;;;;;;1.80;1.70;;;21.30;75.30;;;;;;5027867;28;20623;-88
2021/05/28 12:20:22;;;;;;;3.83;1.87;;;22.20;75.10;;;;;;5022931;28;20712;-88
2021/05/28 12:23:04;;;;;;;1.50;1.40;;;22.60;70.00;;;;;;5024443;28;21201;-89
2021/05/28 12:25:34;;;;;;;2.20;2.00;;;23.50;69.30;;;;;;5025537;28;20669;-88
2021/05/28 12:28:12;;;;;;;2.43;2.23;;;23.50;68.90;;;;;;5023302;28;20652;-88
2021/05/28 12:30:39;;;;;;;2.40;2.20;;;22.90;70.90;;;;;;5023369;28;21272;-88
2021/05/28 12:33:06;;;;;;;2.53;1.90;;;21.90;72.80;;;;;;5022000;28;20643;-88
2021/05/28 12:35:33;;;;;;;3.00;1.60;;;21.20;74.60;;;;;;5021411;28;20639;-88
2021/05/28 12:38:17;;;;;;;1.70;1.60;;;20.60;74.20;;;;;;5020266;28;20646;-88
2021/05/28 12:40:48;;;;;;;1.97;1.77;;;22.00;70.50;;;;;;5022754;28;20692;-88
2021/05/28 12:43:26;;;;;;;2.63;2.10;;;23.50;67.40;;;;;;5026915;28;20711;-88
2021/05/28 12:45:54;;;;;;;1.73;1.50;;;24.80;63.20;;;;;;5025142;28;20678;-88
2021/05/28 12:48:22;;;;;;;2.17;1.97;;;24.20;63.70;;;;;;5021432;28;20634;-87
2021/05/28 12:50:50;;;;;;;4.20;1.90;;;22.70;67.50;;;;;;5023428;28;20642;-88
2021/05/28 12:53:18;;;;;;;2.27;1.93;;;21.70;70.90;;;;;;5023019;28;20642;-87
2021/05/28 12:55:52;;;;;;;2.00;1.80;;;21.10;71.60;;;;;;5030994;28;20642;-87
2021/05/28 12:58:29;;;;;;;2.30;2.13;;;20.60;74.10;;;;;;5031331;28;20619;-86